Time;durP1;ratioP1;P1;durP2;ratioP2;P2;SDS_P1;SDS_P2;PMS_P1;PMS_P2;Temp;Humidity;BMP_temperature;BMP_pressure;BME280_temperature;BME280_humidity;BME280_pressure;Samples;Min_cycle;Max_cycle;Signal;HPM_P1;HPM_P2
2021/07/24 00:02:06;;;;;;;3.05;1.58;;;;;;;;;;5072955;28;20052;-91
2021/07/24 00:04:33;;;;;;;7.38;2.15;;;;;;;;;;5072922;28;20045;-92
2021/07/24 00:07:01;;;;;;;2.88;2.13;;;;;;;;;;5073231;28;20055;-91
2021/07/24 00:09:28;;;;;;;2.33;1.30;;;;;;;;;;5072515;28;20103;-92
2021/07/24 00:11:55;;;;;;;2.17;1.73;;;;;;;;;;5073195;28;20049;-91
2021/07/24 00:14:22;;;;;;;6.55;2.85;;;;;;;;;;5072925;28;20044;-92
2021/07/24 00:16:48;;;;;;;3.40;2.50;;;;;;;;;;5073297;28;20045;-91
2021/07/24 00:19:15;;;;;;;2.63;2.17;;;;;;;;;;5072588;28;20051;-92
2021/07/24 00:21:41;;;;;;;4.57;2.10;;;;;;;;;;5072276;28;20058;-91
2021/07/24 00:24:10;;;;;;;3.10;2.30;;;;;;;;;;5072504;28;20045;-91
2021/07/24 00:26:36;;;;;;;3.30;2.28;;;;;;;;;;5072094;28;20051;-91
2021/07/24 00:29:05;;;;;;;2.95;1.92;;;;;;;;;;5072302;28;20825;-91
2021/07/24 00:31:32;;;;;;;3.63;1.75;;;;;;;;;;5072240;28;20044;-91
2021/07/24 00:33:58;;;;;;;2.38;1.48;;;;;;;;;;5072576;28;20044;-91
2021/07/24 00:36:25;;;;;;;3.72;2.00;;;;;;;;;;5072529;28;20048;-91
2021/07/24 00:38:52;;;;;;;3.63;2.30;;;;;;;;;;5072226;28;20055;-91
2021/07/24 00:41:21;;;;;;;5.35;2.97;;;;;;;;;;5073157;28;20048;-91
2021/07/24 00:43:50;;;;;;;3.13;1.90;;;;;;;;;;5072317;28;20051;-91
2021/07/24 00:46:17;;;;;;;3.53;1.80;;;;;;;;;;5071866;28;20080;-91
2021/07/24 00:48:44;;;;;;;3.25;2.00;;;;;;;;;;5072024;28;20051;-91
2021/07/24 00:51:11;;;;;;;12.05;2.25;;;;;;;;;;5072068;28;20052;-91
2021/07/24 00:53:37;;;;;;;4.05;2.20;;;;;;;;;;5072410;28;20048;-91
2021/07/24 00:56:06;;;;;;;4.20;2.50;;;;;;;;;;5072451;28;20048;-92
2021/07/24 00:58:35;;;;;;;2.80;1.95;;;;;;;;;;5072331;28;20048;-91
2021/07/24 01:01:02;;;;;;;3.05;2.03;;;;;;;;;;5072347;28;20101;-91
2021/07/24 01:03:29;;;;;;;2.92;2.08;;;;;;;;;;5072032;28;20041;-91
2021/07/24 01:05:56;;;;;;;5.07;3.00;;;;;;;;;;5072384;28;20044;-90
2021/07/24 01:08:23;;;;;;;2.10;1.85;;;;;;;;;;5072060;28;20053;-91
2021/07/24 01:10:51;;;;;;;4.47;3.05;;;;;;;;;;5071767;28;20060;-91
2021/07/24 01:13:18;;;;;;;2.13;1.33;;;;;;;;;;5072075;28;20045;-91
2021/07/24 01:15:47;;;;;;;4.22;2.90;;;;;;;;;;5072051;28;20056;-91
2021/07/24 01:18:13;;;;;;;3.72;2.65;;;;;;;;;;5072249;28;20045;-91
2021/07/24 01:20:41;;;;;;;5.18;2.25;;;;;;;;;;5071989;28;20486;-91
2021/07/24 01:23:09;;;;;;;2.88;1.95;;;;;;;;;;5074448;28;20045;-91
2021/07/24 01:25:42;;;;;;;2.58;1.95;;;;;;;;;;5075838;28;20051;-91
2021/07/24 01:28:08;;;;;;;2.97;2.42;;;;;;;;;;5075759;28;20398;-91
2021/07/24 01:30:35;;;;;;;4.68;3.45;;;;;;;;;;5075677;28;20055;-91
2021/07/24 01:33:01;;;;;;;3.53;2.45;;;;;;;;;;5075524;28;20044;-91
2021/07/24 01:35:28;;;;;;;3.50;3.03;;;;;;;;;;5075536;28;20054;-91
2021/07/24 01:37:55;;;;;;;5.18;2.97;;;;;;;;;;5075643;28;20469;-91
2021/07/24 01:40:23;;;;;;;3.30;2.53;;;;;;;;;;5075537;28;20048;-92
2021/07/24 01:42:49;;;;;;;5.10;2.15;;;;;;;;;;5075365;28;20048;-91
2021/07/24 01:45:16;;;;;;;3.58;3.17;;;;;;;;;;5075657;28;20055;-91
2021/07/24 01:47:43;;;;;;;2.80;2.47;;;;;;;;;;5075379;28;20053;-91
2021/07/24 01:52:54;;;;;;;3.95;3.00;;;;;;;;;;5075320;28;20121;-91
2021/07/24 01:55:27;;;;;;;2.60;1.95;;;;;;;;;;5075513;28;20048;-92
2021/07/24 01:57:54;;;;;;;4.80;2.38;;;;;;;;;;5075232;28;20057;-92
2021/07/24 02:00:21;;;;;;;2.25;1.77;;;;;;;;;;5075457;28;20055;-91
2021/07/24 02:02:50;;;;;;;3.88;2.70;;;;;;;;;;5075370;28;20106;-91
2021/07/24 02:05:26;;;;;;;2.45;2.05;;;;;;;;;;5075182;28;20552;-92
2021/07/24 02:07:55;;;;;;;4.05;2.70;;;;;;;;;;5074954;28;20051;-91
2021/07/24 02:10:22;;;;;;;3.40;2.17;;;;;;;;;;5074955;28;20056;-89
2021/07/24 02:12:50;;;;;;;5.03;2.15;;;;;;;;;;5075375;28;20475;-89
2021/07/24 02:15:16;;;;;;;4.53;2.95;;;;;;;;;;5075200;28;20371;-89
2021/07/24 02:17:43;;;;;;;3.55;2.15;;;;;;;;;;5075013;28;20044;-90
2021/07/24 02:20:11;;;;;;;4.68;2.35;;;;;;;;;;5074987;28;20094;-89
2021/07/24 02:22:38;;;;;;;4.53;2.72;;;;;;;;;;5074954;28;20136;-89
2021/07/24 02:25:05;;;;;;;4.68;3.40;;;;;;;;;;5075045;28;20464;-89
2021/07/24 02:27:33;;;;;;;3.50;2.15;;;;;;;;;;5074594;28;20098;-89
2021/07/24 02:30:01;;;;;;;4.28;2.65;;;;;;;;;;5074979;28;20396;-89
2021/07/24 02:32:27;;;;;;;2.47;2.05;;;;;;;;;;5074040;28;20040;-89
2021/07/24 02:34:54;;;;;;;2.45;1.80;;;;;;;;;;5074742;28;20402;-89
2021/07/24 02:37:20;;;;;;;5.82;3.55;;;;;;;;;;5074377;28;20051;-90
2021/07/24 02:39:47;;;;;;;5.03;2.17;;;;;;;;;;5074625;28;20045;-89
2021/07/24 02:42:15;;;;;;;3.03;2.00;;;;;;;;;;5074364;28;20040;-89
2021/07/24 02:44:41;;;;;;;5.10;2.30;;;;;;;;;;5074365;28;20052;-88
2021/07/24 02:47:10;;;;;;;3.65;2.85;;;;;;;;;;5074296;28;20059;-88
2021/07/24 02:49:37;;;;;;;3.22;2.00;;;;;;;;;;5074476;28;20486;-89
2021/07/24 02:52:04;;;;;;;3.95;2.17;;;;;;;;;;5074030;28;20057;-89
2021/07/24 02:54:30;;;;;;;3.25;2.25;;;;;;;;;;5074262;28;20049;-89
2021/07/24 02:56:57;;;;;;;3.25;1.83;;;;;;;;;;5073931;28;20049;-89
2021/07/24 02:59:24;;;;;;;3.65;2.40;;;;;;;;;;5074347;28;20067;-89
2021/07/24 03:01:50;;;;;;;4.00;2.28;;;;;;;;;;5073968;28;20056;-89
2021/07/24 03:04:19;;;;;;;2.88;2.50;;;;;;;;;;5074151;28;20048;-89
2021/07/24 03:06:45;;;;;;;2.97;2.45;;;;;;;;;;5074001;28;20044;-89
2021/07/24 03:09:12;;;;;;;4.15;2.60;;;;;;;;;;5073725;28;20060;-89
2021/07/24 03:11:38;;;;;;;3.17;2.13;;;;;;;;;;5073774;28;20044;-89
2021/07/24 03:14:05;;;;;;;4.30;2.05;;;;;;;;;;5073683;28;20045;-88
2021/07/24 03:16:31;;;;;;;5.15;3.25;;;;;;;;;;5073387;28;20071;-88
2021/07/24 03:18:58;;;;;;;4.43;2.85;;;;;;;;;;5073654;28;20437;-89
2021/07/24 03:21:26;;;;;;;4.22;3.03;;;;;;;;;;5073815;28;20417;-89
2021/07/24 03:23:53;;;;;;;4.72;2.75;;;;;;;;;;5073553;28;20036;-89
2021/07/24 03:26:22;;;;;;;3.92;3.38;;;;;;;;;;5073731;28;20452;-89
2021/07/24 03:28:48;;;;;;;5.47;2.90;;;;;;;;;;5075404;28;20059;-94
2021/07/24 03:31:15;;;;;;;3.40;2.47;;;;;;;;;;5075174;28;20117;-95
2021/07/24 03:33:41;;;;;;;6.65;2.72;;;;;;;;;;5074437;28;20045;-93
2021/07/24 03:36:08;;;;;;;6.88;2.95;;;;;;;;;;5074523;28;20491;-93
2021/07/24 03:38:36;;;;;;;6.95;3.25;;;;;;;;;;5074730;28;20106;-93
2021/07/24 03:41:03;;;;;;;3.58;2.67;;;;;;;;;;5074743;28;20409;-94
2021/07/24 03:43:30;;;;;;;3.38;2.58;;;;;;;;;;5074505;28;20509;-93
2021/07/24 03:45:56;;;;;;;4.30;2.40;;;;;;;;;;5073823;28;20158;-94
2021/07/24 03:48:23;;;;;;;4.13;3.40;;;;;;;;;;5074726;28;20044;-94
2021/07/24 03:50:50;;;;;;;4.72;2.80;;;;;;;;;;5074539;28;20052;-94
2021/07/24 03:53:16;;;;;;;5.10;3.05;;;;;;;;;;5074639;28;20502;-94
2021/07/24 03:55:44;;;;;;;4.03;2.72;;;;;;;;;;5075528;28;20441;-93
2021/07/24 03:58:11;;;;;;;4.30;2.70;;;;;;;;;;5083823;28;20050;-94
2021/07/24 04:00:41;;;;;;;5.15;2.78;;;;;;;;;;5083262;28;20106;-93
2021/07/24 04:03:08;;;;;;;5.15;4.00;;;;;;;;;;5088953;28;20403;-94
2021/07/24 04:05:39;;;;;;;5.45;3.20;;;;;;;;;;5085979;28;20051;-95
2021/07/24 04:08:06;;;;;;;3.33;2.25;;;;;;;;;;5086894;28;20379;-95
2021/07/24 04:10:33;;;;;;;3.95;1.83;;;;;;;;;;5093361;28;20036;-93
2021/07/24 04:13:02;;;;;;;11.75;3.05;;;;;;;;;;5084284;28;20395;-94
2021/07/24 04:15:28;;;;;;;4.07;2.80;;;;;;;;;;5082328;28;20105;-93
2021/07/24 04:17:55;;;;;;;3.70;2.72;;;;;;;;;;5081973;28;20051;-94
2021/07/24 04:20:22;;;;;;;4.65;3.38;;;;;;;;;;5086063;28;20047;-94
2021/07/24 04:22:48;;;;;;;5.82;3.13;;;;;;;;;;5090413;28;20044;-95
2021/07/24 04:25:15;;;;;;;3.40;2.55;;;;;;;;;;5079534;28;20048;-95
2021/07/24 04:27:42;;;;;;;4.68;2.40;;;;;;;;;;5075948;28;20114;-95
2021/07/24 04:30:11;;;;;;;5.93;2.35;;;;;;;;;;5076843;28;20495;-96
2021/07/24 04:32:37;;;;;;;6.25;3.00;;;;;;;;;;5095824;28;20190;-95
2021/07/24 04:35:04;;;;;;;5.53;3.33;;;;;;;;;;5096018;28;20044;-94
2021/07/24 04:37:31;;;;;;;10.02;3.92;;;;;;;;;;5086511;28;20040;-94
2021/07/24 04:39:58;;;;;;;4.55;3.25;;;;;;;;;;5074526;28;20068;-95
2021/07/24 04:42:24;;;;;;;5.25;4.28;;;;;;;;;;5074509;28;20053;-94
2021/07/24 04:44:51;;;;;;;6.30;3.90;;;;;;;;;;5074353;28;20055;-94
2021/07/24 04:47:19;;;;;;;3.83;2.92;;;;;;;;;;5075470;28;20387;-95
2021/07/24 04:49:48;;;;;;;3.10;2.25;;;;;;;;;;5075216;28;20056;-94
2021/07/24 04:52:14;;;;;;;4.43;2.30;;;;;;;;;;5076143;28;20380;-94
2021/07/24 04:54:42;;;;;;;3.85;2.58;;;;;;;;;;5075180;28;20483;-94
2021/07/24 04:57:09;;;;;;;3.30;2.33;;;;;;;;;;5078172;28;20044;-95
2021/07/24 04:59:46;;;;;;;3.88;2.63;;;;;;;;;;5078751;28;20056;-94
2021/07/24 05:02:12;;;;;;;5.57;3.35;;;;;;;;;;5076433;28;20052;-90
2021/07/24 05:04:40;;;;;;;3.65;3.08;;;;;;;;;;5076214;28;20052;-90
2021/07/24 05:07:07;;;;;;;4.97;3.30;;;;;;;;;;5076512;28;20398;-91
2021/07/24 05:09:34;;;;;;;3.55;2.55;;;;;;;;;;5076102;28;20049;-89
2021/07/24 05:12:00;;;;;;;4.05;2.65;;;;;;;;;;5076124;28;20048;-89
2021/07/24 05:14:27;;;;;;;4.47;2.38;;;;;;;;;;5076085;28;20106;-90
2021/07/24 05:16:53;;;;;;;4.88;2.92;;;;;;;;;;5082681;28;20547;-90
2021/07/24 05:19:20;;;;;;;6.20;3.30;;;;;;;;;;5095999;28;20048;-91
2021/07/24 05:21:48;;;;;;;3.88;2.70;;;;;;;;;;5096145;28;20471;-92
2021/07/24 05:24:16;;;;;;;3.58;3.15;;;;;;;;;;5096049;28;20143;-91
2021/07/24 05:26:43;;;;;;;7.50;2.78;;;;;;;;;;5096419;28;20475;-91
2021/07/24 05:29:09;;;;;;;6.72;4.43;;;;;;;;;;5096208;28;20051;-93
2021/07/24 05:31:36;;;;;;;4.78;2.50;;;;;;;;;;5080723;28;20053;-90
2021/07/24 05:34:03;;;;;;;4.05;2.60;;;;;;;;;;5075863;28;20113;-90
2021/07/24 05:36:29;;;;;;;5.88;3.13;;;;;;;;;;5074105;28;20056;-90
2021/07/24 05:38:57;;;;;;;5.78;3.92;;;;;;;;;;5075524;28;20483;-90
2021/07/24 05:41:24;;;;;;;4.07;2.38;;;;;;;;;;5075560;28;20055;-91
2021/07/24 05:43:50;;;;;;;4.45;2.85;;;;;;;;;;5094162;28;20056;-91
2021/07/24 05:46:17;;;;;;;5.75;2.60;;;;;;;;;;5095356;28;20379;-91
2021/07/24 05:48:43;;;;;;;5.32;2.78;;;;;;;;;;5095591;28;20479;-90
2021/07/24 05:51:10;;;;;;;5.13;3.03;;;;;;;;;;5094457;28;20055;-90
2021/07/24 05:53:37;;;;;;;5.72;3.67;;;;;;;;;;5095780;28;20063;-91
2021/07/24 05:56:05;;;;;;;9.13;4.45;;;;;;;;;;5095789;28;20482;-90
2021/07/24 05:58:32;;;;;;;6.35;4.20;;;;;;;;;;5095557;28;20047;-91
2021/07/24 06:00:59;;;;;;;7.03;3.45;;;;;;;;;;5095367;28;20070;-91
2021/07/24 06:03:25;;;;;;;7.03;4.45;;;;;;;;;;5096059;28;20052;-90
2021/07/24 06:05:52;;;;;;;9.60;5.93;;;;;;;;;;5095515;28;20051;-92
2021/07/24 06:08:19;;;;;;;7.18;4.20;;;;;;;;;;5094793;28;20056;-90
2021/07/24 06:10:45;;;;;;;5.63;3.80;;;;;;;;;;5095312;28;20055;-91
2021/07/24 06:13:13;;;;;;;7.80;3.88;;;;;;;;;;5095343;28;20048;-90
2021/07/24 06:15:42;;;;;;;4.35;3.72;;;;;;;;;;5095418;28;20048;-91
2021/07/24 06:18:08;;;;;;;6.25;3.80;;;;;;;;;;5095237;28;20047;-91
2021/07/24 06:20:37;;;;;;;5.07;3.25;;;;;;;;;;5094757;28;20048;-90
2021/07/24 06:23:03;;;;;;;3.58;2.20;;;;;;;;;;5095801;28;20481;-93
2021/07/24 06:25:30;;;;;;;5.57;2.42;;;;;;;;;;5095239;28;20543;-92
2021/07/24 06:27:57;;;;;;;4.68;2.78;;;;;;;;;;5095202;28;20429;-91
2021/07/24 06:30:26;;;;;;;5.95;2.75;;;;;;;;;;5086717;28;20048;-91
2021/07/24 06:32:52;;;;;;;4.35;3.15;;;;;;;;;;5094873;28;20055;-91
2021/07/24 06:35:19;;;;;;;9.35;3.88;;;;;;;;;;5094766;28;20056;-90
2021/07/24 06:37:45;;;;;;;8.80;3.70;;;;;;;;;;5094498;28;20060;-90
2021/07/24 06:40:13;;;;;;;3.97;2.42;;;;;;;;;;5094908;28;20044;-90
2021/07/24 06:42:39;;;;;;;3.63;2.05;;;;;;;;;;5094643;28;20097;-91
2021/07/24 06:45:06;;;;;;;3.75;2.25;;;;;;;;;;5094233;28;20130;-90
2021/07/24 06:47:34;;;;;;;3.72;2.05;;;;;;;;;;5093948;28;20052;-90
2021/07/24 06:50:01;;;;;;;3.45;2.85;;;;;;;;;;5094276;28;20044;-91
2021/07/24 06:52:27;;;;;;;4.25;2.05;;;;;;;;;;5094291;28;20098;-90
2021/07/24 06:54:54;;;;;;;9.60;3.95;;;;;;;;;;5093821;28;20063;-91
2021/07/24 06:57:20;;;;;;;8.68;2.97;;;;;;;;;;5094421;28;20499;-92
2021/07/24 06:59:47;;;;;;;4.38;2.97;;;;;;;;;;5094148;28;20052;-91
2021/07/24 07:02:14;;;;;;;4.45;2.47;;;;;;;;;;5094410;28;20052;-92
2021/07/24 07:04:43;;;;;;;3.15;2.42;;;;;;;;;;5094014;28;20048;-91
2021/07/24 07:07:10;;;;;;;4.25;2.90;;;;;;;;;;5094516;28;20052;-91
2021/07/24 07:09:36;;;;;;;4.53;3.20;;;;;;;;;;5094587;28;20054;-91
2021/07/24 07:12:03;;;;;;;3.90;2.65;;;;;;;;;;5093997;28;20412;-90
2021/07/24 07:14:30;;;;;;;4.55;2.30;;;;;;;;;;5093694;28;20052;-90
2021/07/24 07:16:56;;;;;;;8.85;3.38;;;;;;;;;;5086443;28;20388;-91
2021/07/24 07:19:23;;;;;;;3.83;2.70;;;;;;;;;;5073910;28;20053;-92
2021/07/24 07:21:51;;;;;;;3.35;2.25;;;;;;;;;;5074674;28;20090;-93
2021/07/24 07:24:17;;;;;;;4.30;2.28;;;;;;;;;;5075300;28;20521;-92
2021/07/24 07:26:45;;;;;;;3.42;1.77;;;;;;;;;;5093783;28;20046;-92
2021/07/24 07:29:11;;;;;;;8.98;2.95;;;;;;;;;;5093579;28;20387;-91
2021/07/24 07:31:38;;;;;;;3.72;1.95;;;;;;;;;;5093790;28;20474;-91
2021/07/24 07:34:05;;;;;;;5.63;2.22;;;;;;;;;;5093980;28;20048;-92
2021/07/24 07:36:31;;;;;;;4.88;2.88;;;;;;;;;;5094287;28;20397;-93
2021/07/24 07:38:59;;;;;;;5.15;3.03;;;;;;;;;;5093695;28;20406;-92
2021/07/24 07:41:26;;;;;;;3.90;2.53;;;;;;;;;;5093640;28;20048;-91
2021/07/24 07:43:53;;;;;;;3.42;1.92;;;;;;;;;;5093042;28;20048;-93
2021/07/24 07:46:19;;;;;;;3.30;2.30;;;;;;;;;;5091585;28;20040;-90
2021/07/24 07:48:46;;;;;;;3.22;1.85;;;;;;;;;;5093501;28;20127;-90
2021/07/24 07:51:13;;;;;;;4.40;2.92;;;;;;;;;;5093280;28;20055;-92
2021/07/24 07:53:39;;;;;;;2.85;2.08;;;;;;;;;;5093794;28;20048;-90
2021/07/24 07:56:09;;;;;;;3.50;2.10;;;;;;;;;;5093411;28;21082;-92
2021/07/24 07:58:36;;;;;;;4.00;2.20;;;;;;;;;;5093502;28;20497;-91
2021/07/24 08:01:10;;;;;;;2.88;1.70;;;;;;;;;;5093518;28;20474;-92
2021/07/24 08:03:36;;;;;;;3.55;1.42;;;;;;;;;;5092396;28;20048;-93
2021/07/24 08:06:03;;;;;;;3.28;2.22;;;;;;;;;;5093264;28;20044;-95
2021/07/24 08:08:29;;;;;;;1.90;1.38;;;;;;;;;;5094157;28;20044;-93
2021/07/24 08:10:56;;;;;;;5.80;2.17;;;;;;;;;;5094264;28;20054;-93
2021/07/24 08:13:26;;;;;;;2.92;1.90;;;;;;;;;;5093794;28;20052;-92
2021/07/24 08:15:52;;;;;;;2.88;1.65;;;;;;;;;;5093556;28;20051;-95
2021/07/24 08:18:19;;;;;;;2.67;1.70;;;;;;;;;;5093756;28;20048;-93
2021/07/24 08:20:46;;;;;;;2.03;1.25;;;;;;;;;;5092357;28;20052;-93
2021/07/24 08:23:13;;;;;;;2.13;1.13;;;;;;;;;;5091547;28;20062;-93
2021/07/24 08:25:40;;;;;;;3.00;1.85;;;;;;;;;;5093118;28;20105;-92
2021/07/24 08:28:06;;;;;;;4.85;1.45;;;;;;;;;;5092479;28;20131;-93
2021/07/24 08:30:35;;;;;;;2.80;1.83;;;;;;;;;;5090796;28;20036;-93
2021/07/24 08:33:01;;;;;;;2.50;1.63;;;;;;;;;;5092970;28;20043;-93
2021/07/24 08:35:28;;;;;;;2.35;1.58;;;;;;;;;;5092836;28;20051;-92
2021/07/24 08:37:55;;;;;;;1.98;1.15;;;;;;;;;;5093438;28;20055;-94
2021/07/24 08:40:22;;;;;;;2.95;2.08;;;;;;;;;;5093642;28;20539;-94
2021/07/24 08:42:48;;;;;;;2.58;1.67;;;;;;;;;;5093082;28;20401;-93
2021/07/24 08:45:16;;;;;;;3.00;1.55;;;;;;;;;;5092404;28;20139;-94
2021/07/24 08:47:44;;;;;;;3.03;1.80;;;;;;;;;;5092781;28;20048;-94
2021/07/24 08:50:12;;;;;;;2.22;1.35;;;;;;;;;;5092691;28;20151;-92
2021/07/24 08:52:38;;;;;;;2.33;1.48;;;;;;;;;;5092008;28;20044;-92
2021/07/24 08:55:07;;;;;;;3.88;2.03;;;;;;;;;;5092843;28;20059;-91
2021/07/24 08:57:38;;;;;;;2.55;1.23;;;;;;;;;;5093278;28;20044;-94
2021/07/24 09:00:06;;;;;;;2.42;1.70;;;;;;;;;;5093256;28;20052;-93
2021/07/24 09:02:36;;;;;;;3.33;1.73;;;;;;;;;;5092894;28;20048;-94
2021/07/24 09:05:06;;;;;;;4.07;1.77;;;;;;;;;;5092781;28;20040;-95
2021/07/24 09:07:33;;;;;;;2.55;1.50;;;;;;;;;;5092789;28;20117;-94
2021/07/24 09:10:00;;;;;;;1.70;1.05;;;;;;;;;;5092448;28;20055;-93
2021/07/24 09:12:27;;;;;;;2.53;1.65;;;;;;;;;;5092843;28;20070;-92
2021/07/24 09:14:56;;;;;;;2.08;1.40;;;;;;;;;;5081345;28;20148;-92
2021/07/24 09:17:22;;;;;;;2.85;1.67;;;;;;;;;;5072114;28;20055;-93
2021/07/24 09:19:50;;;;;;;2.50;1.55;;;;;;;;;;5085784;28;20126;-93
2021/07/24 09:22:31;;;;;;;2.05;1.30;;;;;;;;;;5092142;28;20113;-93
2021/07/24 09:25:13;;;;;;;3.85;1.98;;;;;;;;;;5093411;28;20044;-94
2021/07/24 09:27:40;;;;;;;2.00;1.38;;;;;;;;;;5090387;28;20124;-93
2021/07/24 09:30:08;;;;;;;2.10;1.35;;;;;;;;;;5089593;28;20142;-93
2021/07/24 09:32:34;;;;;;;3.60;1.90;;;;;;;;;;5072367;28;20127;-93
2021/07/24 09:35:01;;;;;;;2.17;1.40;;;;;;;;;;5072374;28;20063;-93
2021/07/24 09:37:28;;;;;;;2.50;1.73;;;;;;;;;;5072772;28;20044;-95
2021/07/24 09:39:57;;;;;;;2.70;1.48;;;;;;;;;;5090101;28;20071;-94
2021/07/24 09:42:31;;;;;;;2.70;1.48;;;;;;;;;;5092950;28;20452;-94
2021/07/24 09:45:08;;;;;;;2.53;1.27;;;;;;;;;;5096759;28;20040;-93
2021/07/24 09:47:34;;;;;;;2.08;1.30;;;;;;;;;;5095899;28;20076;-93
2021/07/24 09:50:11;;;;;;;2.97;1.30;;;;;;;;;;5096294;28;20129;-95
2021/07/24 09:52:48;;;;;;;2.70;1.50;;;;;;;;;;5096799;28;20044;-93
2021/07/24 09:55:23;;;;;;;3.10;1.63;;;;;;;;;;5097006;28;20066;-93
2021/07/24 09:57:50;;;;;;;2.20;1.27;;;;;;;;;;5096734;28;20083;-94
2021/07/24 10:00:24;;;;;;;1.83;0.95;;;;;;;;;;5097418;28;20051;-93
2021/07/24 10:03:01;;;;;;;2.33;1.20;;;;;;;;;;5096910;28;20083;-94
2021/07/24 10:05:36;;;;;;;2.47;1.50;;;;;;;;;;5100124;28;20087;-95
2021/07/24 10:08:03;;;;;;;2.83;1.70;;;;;;;;;;5102503;28;20056;-95
2021/07/24 10:10:32;;;;;;;2.35;1.73;;;;;;;;;;5100199;28;20068;-95
2021/07/24 10:13:01;;;;;;;2.80;1.33;;;;;;;;;;5098022;28;20055;-96
2021/07/24 10:15:30;;;;;;;4.82;1.83;;;;;;;;;;5098465;28;20044;-95
2021/07/24 10:17:57;;;;;;;3.20;1.23;;;;;;;;;;5098123;28;20171;-94
2021/07/24 10:20:23;;;;;;;2.30;1.15;;;;;;;;;;5096917;28;20142;-94
2021/07/24 10:22:50;;;;;;;1.80;0.90;;;;;;;;;;5097896;28;20048;-94
2021/07/24 10:25:21;;;;;;;1.90;0.98;;;;;;;;;;5097746;28;20056;-94
2021/07/24 10:27:52;;;;;;;4.82;1.20;;;;;;;;;;5103586;28;20055;-94
2021/07/24 10:30:26;;;;;;;1.40;0.77;;;;;;;;;;5100558;28;20579;-93
2021/07/24 10:32:54;;;;;;;2.55;1.58;;;;;;;;;;5098660;28;20059;-95
2021/07/24 10:35:35;;;;;;;1.92;1.42;;;;;;;;;;5103383;28;20052;-95
2021/07/24 10:38:22;;;;;;;1.25;0.90;;;;;;;;;;5102992;28;20054;-95
2021/07/24 10:40:49;;;;;;;3.15;1.20;;;;;;;;;;5102615;28;20062;-96
2021/07/24 10:43:45;;;;;;;2.92;1.85;;;;;;;;;;5097900;28;20079;-95
2021/07/24 10:46:11;;;;;;;1.75;1.20;;;;;;;;;;5097708;28;20056;-94
2021/07/24 10:48:44;;;;;;;2.00;1.20;;;;;;;;;;5097892;28;20051;-95
2021/07/24 10:51:15;;;;;;;3.35;1.88;;;;;;;;;;5087877;28;20489;-95
2021/07/24 10:54:00;;;;;;;7.70;1.48;;;;;;;;;;5080345;28;20109;-93
2021/07/24 10:56:44;;;;;;;5.82;2.80;;;;;;;;;;5081841;28;20049;-93
2021/07/24 11:02:48;;;;;;;3.33;1.60;;;;;;;;;;5091480;28;20372;-96
2021/07/24 11:05:33;;;;;;;1.40;0.98;;;;;;;;;;5090215;28;20052;-96
2021/07/24 11:07:59;;;;;;;1.80;0.95;;;;;;;;;;5079805;28;20045;-94
2021/07/24 11:10:27;;;;;;;1.55;0.90;;;;;;;;;;5076667;28;20497;-92
2021/07/24 11:12:53;;;;;;;3.15;2.00;;;;;;;;;;5082464;28;20140;-93
2021/07/24 11:18:24;;;;;;;2.97;1.48;;;;;;;;;;5076243;28;20051;-94
2021/07/24 11:20:51;;;;;;;2.75;1.70;;;;;;;;;;5075810;28;20082;-93
2021/07/24 11:23:18;;;;;;;2.00;1.23;;;;;;;;;;5074538;28;20372;-92
2021/07/24 11:25:46;;;;;;;1.88;1.02;;;;;;;;;;5075190;28;20083;-92
2021/07/24 11:28:19;;;;;;;2.67;1.30;;;;;;;;;;5075283;28;20048;-91
2021/07/24 11:30:46;;;;;;;2.58;1.50;;;;;;;;;;5082505;28;20478;-93
2021/07/24 11:33:18;;;;;;;1.98;1.00;;;;;;;;;;5094596;28;20055;-92
2021/07/24 11:35:48;;;;;;;2.17;1.00;;;;;;;;;;5095274;28;20059;-94
2021/07/24 11:38:27;;;;;;;2.60;2.00;;;;;;;;;;5094630;28;20063;-93
2021/07/24 11:40:58;;;;;;;3.35;1.13;;;;;;;;;;5095170;28;20047;-93
2021/07/24 11:43:25;;;;;;;2.17;1.50;;;;;;;;;;5095366;28;20109;-93
2021/07/24 11:45:58;;;;;;;2.40;1.23;;;;;;;;;;5095430;28;20405;-94
2021/07/24 11:48:25;;;;;;;1.70;1.00;;;;;;;;;;5107072;28;20052;-94
2021/07/24 11:51:00;;;;;;;1.77;0.95;;;;;;;;;;5095851;28;20052;-93
2021/07/24 11:53:27;;;;;;;2.08;0.95;;;;;;;;;;5094764;28;20397;-92
2021/07/24 11:56:09;;;;;;;1.88;1.13;;;;;;;;;;5094603;28;20488;-93
2021/07/24 11:58:36;;;;;;;2.85;1.45;;;;;;;;;;5094411;28;20044;-92
2021/07/24 12:01:18;;;;;;;1.75;1.08;;;;;;;;;;5094346;28;20059;-94
2021/07/24 12:03:45;;;;;;;1.65;1.02;;;;;;;;;;5094530;28;20048;-92
2021/07/24 12:06:14;;;;;;;2.05;1.17;;;;;;;;;;5093865;28;20048;-93
2021/07/24 12:08:41;;;;;;;4.80;1.13;;;;;;;;;;5093727;28;20397;-94
2021/07/24 12:11:12;;;;;;;1.38;1.00;;;;;;;;;;5093745;28;20234;-95
2021/07/24 12:13:38;;;;;;;2.33;1.02;;;;;;;;;;5094189;28;20056;-94
2021/07/24 12:16:06;;;;;;;2.83;1.70;;;;;;;;;;5095053;28;20445;-93
2021/07/24 12:18:36;;;;;;;2.33;1.13;;;;;;;;;;5077089;28;20593;-93
2021/07/24 12:21:07;;;;;;;2.15;1.02;;;;;;;;;;5077752;28;20045;-92
2021/07/24 12:23:35;;;;;;;3.58;1.63;;;;;;;;;;5076124;28;20505;-94
2021/07/24 12:26:09;;;;;;;2.28;1.33;;;;;;;;;;5075621;28;20052;-96
2021/07/24 12:28:37;;;;;;;4.03;1.43;;;;;;;;;;5074238;28;20044;-93
2021/07/24 12:31:16;;;;;;;1.55;0.88;;;;;;;;;;5074031;28;20060;-92
2021/07/24 12:33:43;;;;;;;2.05;1.27;;;;;;;;;;5073766;28;20056;-93
2021/07/24 12:36:10;;;;;;;1.42;0.93;;;;;;;;;;5073964;28;20127;-95
2021/07/24 12:38:38;;;;;;;2.45;1.00;;;;;;;;;;5073446;28;20057;-95
2021/07/24 12:41:05;;;;;;;1.80;1.25;;;;;;;;;;5074227;28;20514;-95
2021/07/24 12:43:32;;;;;;;3.03;1.40;;;;;;;;;;5074050;28;20517;-95
2021/07/24 12:46:11;;;;;;;1.98;0.95;;;;;;;;;;5075504;28;20045;-95
2021/07/24 12:48:41;;;;;;;3.08;1.30;;;;;;;;;;5074544;28;20420;-95
2021/07/24 12:51:08;;;;;;;1.80;1.25;;;;;;;;;;5073403;28;20076;-95
2021/07/24 12:53:34;;;;;;;2.50;1.38;;;;;;;;;;5073835;28;20399;-95
2021/07/24 12:56:03;;;;;;;2.67;1.35;;;;;;;;;;5075226;28;20112;-95
2021/07/24 12:58:30;;;;;;;1.70;1.00;;;;;;;;;;5075422;28;20047;-96
2021/07/24 13:01:07;;;;;;;2.13;1.23;;;;;;;;;;5074493;28;20059;-94
2021/07/24 13:03:33;;;;;;;1.75;1.00;;;;;;;;;;5075175;28;20072;-96
2021/07/24 13:06:00;;;;;;;2.28;1.33;;;;;;;;;;5074486;28;20051;-93
2021/07/24 13:08:28;;;;;;;8.90;1.20;;;;;;;;;;5075100;28;20041;-95
2021/07/24 13:10:54;;;;;;;3.55;1.80;;;;;;;;;;5075519;28;20049;-96
2021/07/24 13:13:23;;;;;;;1.90;1.35;;;;;;;;;;5074786;28;20563;-95
2021/07/24 13:15:49;;;;;;;2.13;1.10;;;;;;;;;;5074233;28;20054;-95
2021/07/24 13:18:19;;;;;;;3.28;1.48;;;;;;;;;;5095013;28;20503;-95
2021/07/24 13:20:45;;;;;;;3.90;1.77;;;;;;;;;;5097486;28;20383;-95
2021/07/24 13:23:12;;;;;;;1.77;1.13;;;;;;;;;;5097792;28;20413;-95
2021/07/24 13:28:24;;;;;;;0.90;0.60;;;;;;;;;;5098474;28;20066;-95
2021/07/24 13:30:52;;;;;;;2.25;1.30;;;;;;;;;;5099472;28;20052;-95
2021/07/24 13:33:19;;;;;;;2.25;1.55;;;;;;;;;;5100543;28;20414;-94
2021/07/24 13:35:46;;;;;;;2.55;1.55;;;;;;;;;;5099702;28;20127;-96
2021/07/24 13:38:14;;;;;;;1.98;1.20;;;;;;;;;;5099695;28;20068;-95
2021/07/24 13:40:40;;;;;;;2.75;1.52;;;;;;;;;;5098343;28;20044;-93
2021/07/24 13:43:07;;;;;;;3.40;1.30;;;;;;;;;;5097858;28;20044;-93
2021/07/24 13:45:35;;;;;;;2.20;1.38;;;;;;;;;;5096423;28;20044;-93
2021/07/24 13:48:02;;;;;;;4.90;2.15;;;;;;;;;;5097973;28;20044;-94
2021/07/24 13:50:28;;;;;;;2.15;1.63;;;;;;;;;;5098074;28;20072;-94
2021/07/24 13:52:55;;;;;;;1.70;0.80;;;;;;;;;;5096757;28;20059;-93
2021/07/24 13:55:21;;;;;;;2.58;1.83;;;;;;;;;;5097448;28;20432;-93
2021/07/24 13:57:48;;;;;;;1.67;1.58;;;;;;;;;;5096557;28;20048;-95
2021/07/24 14:00:15;;;;;;;2.80;1.33;;;;;;;;;;5097810;28;20044;-93
2021/07/24 14:02:43;;;;;;;2.28;1.55;;;;;;;;;;5097080;28;20055;-94
2021/07/24 14:05:10;;;;;;;1.83;1.30;;;;;;;;;;5096897;28;20051;-94
2021/07/24 14:07:37;;;;;;;2.30;1.20;;;;;;;;;;5097328;28;20044;-95
2021/07/24 14:10:04;;;;;;;1.60;0.90;;;;;;;;;;5097318;28;20040;-94
2021/07/24 14:12:31;;;;;;;2.28;1.45;;;;;;;;;;5099203;28;20076;-95
2021/07/24 14:15:04;;;;;;;2.83;1.92;;;;;;;;;;5099721;28;20521;-96
2021/07/24 14:17:31;;;;;;;1.65;0.95;;;;;;;;;;5091007;28;20066;-95
2021/07/24 14:19:59;;;;;;;2.17;1.20;;;;;;;;;;5096503;28;20052;-94
2021/07/24 14:22:27;;;;;;;3.28;2.03;;;;;;;;;;5097092;28;20135;-94
2021/07/24 14:24:53;;;;;;;2.47;1.52;;;;;;;;;;5097449;28;20066;-96
2021/07/24 14:27:20;;;;;;;2.17;1.55;;;;;;;;;;5096719;28;20113;-94
2021/07/24 14:29:46;;;;;;;2.22;1.20;;;;;;;;;;5096586;28;20138;-94
2021/07/24 14:32:13;;;;;;;4.22;1.90;;;;;;;;;;5095768;28;20048;-95
2021/07/24 14:34:40;;;;;;;3.17;1.27;;;;;;;;;;5096957;28;20135;-94
2021/07/24 14:37:08;;;;;;;3.30;2.03;;;;;;;;;;5096270;28;20051;-94
2021/07/24 14:39:34;;;;;;;3.88;1.65;;;;;;;;;;5096971;28;20060;-94
2021/07/24 14:42:01;;;;;;;2.03;1.67;;;;;;;;;;5095943;28;20051;-94
2021/07/24 14:44:28;;;;;;;2.30;1.67;;;;;;;;;;5096407;28;20059;-94
2021/07/24 14:46:58;;;;;;;4.22;2.40;;;;;;;;;;5097234;28;20047;-94
2021/07/24 14:49:24;;;;;;;1.85;1.30;;;;;;;;;;5100908;28;20494;-95
2021/07/24 14:51:53;;;;;;;1.95;1.38;;;;;;;;;;5095729;28;20052;-96
2021/07/24 14:54:21;;;;;;;2.88;1.30;;;;;;;;;;5095024;28;20044;-93
2021/07/24 14:56:48;;;;;;;3.53;1.90;;;;;;;;;;5096857;28;20098;-95
2021/07/24 14:59:14;;;;;;;3.80;1.83;;;;;;;;;;5095158;28;20079;-94
2021/07/24 15:01:41;;;;;;;1.85;1.23;;;;;;;;;;5095253;28;20143;-94